sensor_id;sensor_type;location;lat;lon;timestamp;pressure;altitude;pressure_sealevel;temperature;humidity
70589;BME280;58152;49.202;18.744;2022-10-13T00:01:18;98162.75;;;9.53;58.88
70589;BME280;58152;49.202;18.744;2022-10-13T00:24:27;98164.72;;;9.46;59.61
70589;BME280;58152;49.202;18.744;2022-10-13T00:27:34;98151.69;;;9.43;60.13
70589;BME280;58152;49.202;18.744;2022-10-13T00:36:42;98156.19;;;9.39;59.67
70589;BME280;58152;49.202;18.744;2022-10-13T00:46:36;98150.31;;;9.30;60.78
70589;BME280;58152;49.202;18.744;2022-10-13T01:03:29;98155.00;;;9.19;61.54
70589;BME280;58152;49.202;18.744;2022-10-13T01:06:29;98146.53;;;9.09;61.32
70589;BME280;58152;49.202;18.744;2022-10-13T01:39:04;98139.84;;;8.97;62.21
70589;BME280;58152;49.202;18.744;2022-10-13T01:42:00;98138.97;;;8.98;61.55
70589;BME280;58152;49.202;18.744;2022-10-13T01:45:10;98140.63;;;9.01;62.13
70589;BME280;58152;49.202;18.744;2022-10-13T01:58:20;98140.06;;;8.89;61.72
70589;BME280;58152;49.202;18.744;2022-10-13T02:16:33;98111.59;;;8.77;63.02
70589;BME280;58152;49.202;18.744;2022-10-13T02:22:18;98135.84;;;8.84;62.80
70589;BME280;58152;49.202;18.744;2022-10-13T02:25:01;98119.38;;;8.80;62.88
70589;BME280;58152;49.202;18.744;2022-10-13T02:27:58;98131.50;;;8.83;63.94
70589;BME280;58152;49.202;18.744;2022-10-13T02:30:48;98115.88;;;8.81;62.75
70589;BME280;58152;49.202;18.744;2022-10-13T02:37:03;98115.94;;;8.78;62.95
70589;BME280;58152;49.202;18.744;2022-10-13T02:43:31;98105.59;;;8.74;64.30
70589;BME280;58152;49.202;18.744;2022-10-13T02:46:12;98105.69;;;8.71;63.46
70589;BME280;58152;49.202;18.744;2022-10-13T02:48:46;98109.06;;;8.74;63.48
70589;BME280;58152;49.202;18.744;2022-10-13T02:51:11;98110.81;;;8.74;63.23
70589;BME280;58152;49.202;18.744;2022-10-13T02:53:53;98107.34;;;8.73;63.39
70589;BME280;58152;49.202;18.744;2022-10-13T03:06:45;98117.88;;;8.72;63.61
70589;BME280;58152;49.202;18.744;2022-10-13T03:09:16;98121.38;;;8.71;65.32
70589;BME280;58152;49.202;18.744;2022-10-13T03:11:42;98124.13;;;8.66;63.81
70589;BME280;58152;49.202;18.744;2022-10-13T03:14:10;98106.78;;;8.60;63.51
70589;BME280;58152;49.202;18.744;2022-10-13T03:19:24;98106.84;;;8.59;63.47
70589;BME280;58152;49.202;18.744;2022-10-13T03:21:57;98111.16;;;8.60;63.62
70589;BME280;58152;49.202;18.744;2022-10-13T03:28:10;98100.03;;;8.53;63.13
70589;BME280;58152;49.202;18.744;2022-10-13T03:34:22;98081.16;;;8.40;63.24
70589;BME280;58152;49.202;18.744;2022-10-13T03:36:50;98093.31;;;8.42;63.34
70589;BME280;58152;49.202;18.744;2022-10-13T03:39:43;98090.75;;;8.40;64.04
70589;BME280;58152;49.202;18.744;2022-10-13T03:42:11;98107.13;;;8.48;63.91
70589;BME280;58152;49.202;18.744;2022-10-13T03:48:34;98108.09;;;8.44;64.24
70589;BME280;58152;49.202;18.744;2022-10-13T03:51:21;98094.38;;;8.34;63.51
70589;BME280;58152;49.202;18.744;2022-10-13T03:53:52;98094.38;;;8.33;63.54
70589;BME280;58152;49.202;18.744;2022-10-13T03:56:30;98108.22;;;8.39;63.31
70589;BME280;58152;49.202;18.744;2022-10-13T03:59:14;98106.41;;;8.42;63.87
70589;BME280;58152;49.202;18.744;2022-10-13T04:01:46;98103.88;;;8.38;63.46
70589;BME280;58152;49.202;18.744;2022-10-13T04:04:20;98081.31;;;8.33;63.38
70589;BME280;58152;49.202;18.744;2022-10-13T04:10:39;98092.53;;;8.38;63.67
70589;BME280;58152;49.202;18.744;2022-10-13T04:13:13;98096.91;;;8.37;63.50
70589;BME280;58152;49.202;18.744;2022-10-13T04:15:44;98088.34;;;8.31;63.44
70589;BME280;58152;49.202;18.744;2022-10-13T04:18:14;98090.00;;;8.35;63.82
70589;BME280;58152;49.202;18.744;2022-10-13T04:24:28;98090.88;;;8.34;63.60
70589;BME280;58152;49.202;18.744;2022-10-13T04:26:53;98078.84;;;8.27;63.55
70589;BME280;58152;49.202;18.744;2022-10-13T04:29:19;98089.19;;;8.31;63.55
70589;BME280;58152;49.202;18.744;2022-10-13T04:35:19;98092.81;;;8.26;63.87
70589;BME280;58152;49.202;18.744;2022-10-13T04:37:47;98085.88;;;8.25;63.69
70589;BME280;58152;49.202;18.744;2022-10-13T04:40:32;98075.59;;;8.17;63.86
70589;BME280;58152;49.202;18.744;2022-10-13T04:53:25;98081.75;;;8.16;64.33
70589;BME280;58152;49.202;18.744;2022-10-13T04:56:26;98083.50;;;8.14;64.24
70589;BME280;58152;49.202;18.744;2022-10-13T04:59:16;98084.47;;;8.10;63.61
70589;BME280;58152;49.202;18.744;2022-10-13T05:01:59;98076.72;;;8.07;64.27
70589;BME280;58152;49.202;18.744;2022-10-13T05:04:25;98079.34;;;8.07;63.57
70589;BME280;58152;49.202;18.744;2022-10-13T05:06:51;98085.44;;;8.07;64.51
70589;BME280;58152;49.202;18.744;2022-10-13T05:09:16;98083.72;;;8.06;64.22
70589;BME280;58152;49.202;18.744;2022-10-13T05:11:44;98082.72;;;8.10;64.23
70589;BME280;58152;49.202;18.744;2022-10-13T05:14:10;98069.00;;;8.01;63.91
70589;BME280;58152;49.202;18.744;2022-10-13T05:16:35;98091.41;;;8.12;64.20
70589;BME280;58152;49.202;18.744;2022-10-13T05:19:01;98072.34;;;8.07;64.26
70589;BME280;58152;49.202;18.744;2022-10-13T05:21:28;98079.34;;;8.07;64.02
70589;BME280;58152;49.202;18.744;2022-10-13T05:23:55;98073.16;;;8.11;63.85
70589;BME280;58152;49.202;18.744;2022-10-13T05:26:26;98064.66;;;8.01;63.78
70589;BME280;58152;49.202;18.744;2022-10-13T05:29:01;98067.19;;;8.04;63.95
70589;BME280;58152;49.202;18.744;2022-10-13T05:31:28;98077.53;;;8.09;63.94
70589;BME280;58152;49.202;18.744;2022-10-13T05:33:57;98080.31;;;8.03;63.87
70589;BME280;58152;49.202;18.744;2022-10-13T05:36:31;98081.22;;;8.02;64.30
70589;BME280;58152;49.202;18.744;2022-10-13T06:40:24;98107.72;;;8.22;64.85
70589;BME280;58152;49.202;18.744;2022-10-13T06:43:27;98096.53;;;8.17;65.72
70589;BME280;58152;49.202;18.744;2022-10-13T06:49:31;98101.56;;;8.25;65.63
70589;BME280;58152;49.202;18.744;2022-10-13T06:54:45;98091.13;;;8.25;66.36
70589;BME280;58152;49.202;18.744;2022-10-13T06:57:36;98083.00;;;8.35;65.94
70589;BME280;58152;49.202;18.744;2022-10-13T07:00:03;98100.16;;;8.47;65.52
70589;BME280;58152;49.202;18.744;2022-10-13T07:02:32;98100.19;;;8.46;65.05
70589;BME280;58152;49.202;18.744;2022-10-13T07:12:32;98093.25;;;8.45;65.23
70589;BME280;58152;49.202;18.744;2022-10-13T07:15:11;98086.34;;;8.42;65.12
70589;BME280;58152;49.202;18.744;2022-10-13T07:17:40;98095.81;;;8.48;64.78
70589;BME280;58152;49.202;18.744;2022-10-13T07:20:37;98080.22;;;8.43;65.84
70589;BME280;58152;49.202;18.744;2022-10-13T07:23:13;98109.53;;;8.56;65.66
70589;BME280;58152;49.202;18.744;2022-10-13T07:29:19;98091.44;;;8.48;65.33
70589;BME280;58152;49.202;18.744;2022-10-13T07:31:59;98091.44;;;8.48;65.15
70589;BME280;58152;49.202;18.744;2022-10-13T07:37:13;98098.19;;;8.57;64.96
70589;BME280;58152;49.202;18.744;2022-10-13T07:40:13;98095.56;;;8.57;64.78
70589;BME280;58152;49.202;18.744;2022-10-13T07:42:54;98081.81;;;8.49;65.04
70589;BME280;58152;49.202;18.744;2022-10-13T07:45:23;98080.94;;;8.50;64.87
70589;BME280;58152;49.202;18.744;2022-10-13T07:48:27;98083.50;;;8.51;66.07
70589;BME280;58152;49.202;18.744;2022-10-13T07:50:57;98091.16;;;8.59;65.18
70589;BME280;58152;49.202;18.744;2022-10-13T07:53:23;98086.59;;;8.65;65.06
70589;BME280;58152;49.202;18.744;2022-10-13T07:56:05;98063.00;;;8.69;65.38
70589;BME280;58152;49.202;18.744;2022-10-13T08:03:06;98074.72;;;8.86;65.50
70589;BME280;58152;49.202;18.744;2022-10-13T08:13:30;98064.06;;;8.94;65.64
70589;BME280;58152;49.202;18.744;2022-10-13T08:29:11;98048.25;;;8.97;65.64
70589;BME280;58152;49.202;18.744;2022-10-13T08:31:46;98063.94;;;8.99;65.64
70589;BME280;58152;49.202;18.744;2022-10-13T08:34:20;98046.59;;;8.95;65.64
70589;BME280;58152;49.202;18.744;2022-10-13T08:36:54;98032.59;;;8.96;65.69
70589;BME280;58152;49.202;18.744;2022-10-13T08:39:29;98043.00;;;8.99;65.76
70589;BME280;58152;49.202;18.744;2022-10-13T08:41:59;98050.59;;;9.08;65.70
70589;BME280;58152;49.202;18.744;2022-10-13T08:44:47;98035.75;;;9.08;65.53
70589;BME280;58152;49.202;18.744;2022-10-13T08:54:16;98023.03;;;9.26;65.67
70589;BME280;58152;49.202;18.744;2022-10-13T08:56:43;98035.00;;;9.33;65.66
70589;BME280;58152;49.202;18.744;2022-10-13T08:59:18;98042.59;;;9.42;65.96
70589;BME280;58152;49.202;18.744;2022-10-13T09:02:16;98042.47;;;9.47;65.36
70589;BME280;58152;49.202;18.744;2022-10-13T09:05:03;98046.72;;;9.51;65.25
70589;BME280;58152;49.202;18.744;2022-10-13T09:07:54;98041.25;;;9.58;65.71
70589;BME280;58152;49.202;18.744;2022-10-13T09:10:21;98038.56;;;9.60;65.63
70589;BME280;58152;49.202;18.744;2022-10-13T09:12:52;98041.06;;;9.64;65.86
70589;BME280;58152;49.202;18.744;2022-10-13T09:15:18;98029.81;;;9.61;65.90
70589;BME280;58152;49.202;18.744;2022-10-13T09:18:07;98036.47;;;9.71;65.92
70589;BME280;58152;49.202;18.744;2022-10-13T09:20:33;98041.63;;;9.74;65.58
70589;BME280;58152;49.202;18.744;2022-10-13T09:23:04;98026.00;;;9.71;65.97
70589;BME280;58152;49.202;18.744;2022-10-13T09:25:41;98036.09;;;9.83;65.71
70589;BME280;58152;49.202;18.744;2022-10-13T09:32:34;98036.19;;;9.80;66.50
70589;BME280;58152;49.202;18.744;2022-10-13T10:03:14;98012.88;;;10.77;64.43
70589;BME280;58152;49.202;18.744;2022-10-13T10:05:52;98014.78;;;11.20;63.90
70589;BME280;58152;49.202;18.744;2022-10-13T10:08:48;98018.75;;;11.54;63.85
70589;BME280;58152;49.202;18.744;2022-10-13T10:14:25;98007.53;;;11.51;63.60
70589;BME280;58152;49.202;18.744;2022-10-13T10:17:32;98003.97;;;11.52;63.22
70589;BME280;58152;49.202;18.744;2022-10-13T10:22:44;98002.19;;;11.52;63.51
70589;BME280;58152;49.202;18.744;2022-10-13T10:34:17;97990.00;;;11.73;62.28
70589;BME280;58152;49.202;18.744;2022-10-13T10:36:48;97987.56;;;11.68;63.14
70589;BME280;58152;49.202;18.744;2022-10-13T10:42:10;97981.19;;;11.74;62.71
70589;BME280;58152;49.202;18.744;2022-10-13T10:44:50;97968.47;;;12.28;62.24
70589;BME280;58152;49.202;18.744;2022-10-13T10:47:35;97969.38;;;12.67;61.91
70589;BME280;58152;49.202;18.744;2022-10-13T10:50:22;97974.78;;;12.85;61.79
70589;BME280;58152;49.202;18.744;2022-10-13T10:53:12;97963.59;;;13.38;60.83
70589;BME280;58152;49.202;18.744;2022-10-13T10:55:57;97973.31;;;13.73;60.28
70589;BME280;58152;49.202;18.744;2022-10-13T11:03:57;97963.50;;;14.48;58.78
70589;BME280;58152;49.202;18.744;2022-10-13T11:06:36;97943.81;;;14.19;59.35
70589;BME280;58152;49.202;18.744;2022-10-13T11:16:00;97943.34;;;14.80;57.83
70589;BME280;58152;49.202;18.744;2022-10-13T11:22:10;97935.06;;;14.53;58.23
70589;BME280;58152;49.202;18.744;2022-10-13T11:31:27;97911.28;;;14.36;58.56
70589;BME280;58152;49.202;18.744;2022-10-13T11:34:02;97927.16;;;14.53;58.90
70589;BME280;58152;49.202;18.744;2022-10-13T11:43:08;97910.97;;;14.42;59.20
70589;BME280;58152;49.202;18.744;2022-10-13T11:46:11;97921.03;;;15.02;58.18
70589;BME280;58152;49.202;18.744;2022-10-13T12:01:43;97897.47;;;17.36;54.96
70589;BME280;58152;49.202;18.744;2022-10-13T12:08:01;97881.81;;;18.00;52.88
70589;BME280;58152;49.202;18.744;2022-10-13T12:11:36;97874.25;;;18.34;52.36
70589;BME280;58152;49.202;18.744;2022-10-13T12:21:52;97870.31;;;18.65;52.25
70589;BME280;58152;49.202;18.744;2022-10-13T12:35:40;97858.75;;;18.78;51.15
70589;BME280;58152;49.202;18.744;2022-10-13T14:06:30;97775.16;;;20.25;46.94
70589;BME280;58152;49.202;18.744;2022-10-13T14:13:10;97788.06;;;20.53;46.09
70589;BME280;58152;49.202;18.744;2022-10-13T14:16:22;97781.56;;;20.22;46.92
70589;BME280;58152;49.202;18.744;2022-10-13T14:18:48;97782.31;;;19.78;48.25
70589;BME280;58152;49.202;18.744;2022-10-13T14:21:23;97772.88;;;19.50;48.40
70589;BME280;58152;49.202;18.744;2022-10-13T14:23:49;97769.97;;;19.66;48.34
70589;BME280;58152;49.202;18.744;2022-10-13T14:26:14;97773.19;;;19.34;49.06
70589;BME280;58152;49.202;18.744;2022-10-13T14:28:41;97786.78;;;19.05;49.59
70589;BME280;58152;49.202;18.744;2022-10-13T14:31:07;97789.50;;;18.93;49.60
70589;BME280;58152;49.202;18.744;2022-10-13T14:33:33;97780.59;;;18.81;50.13
70589;BME280;58152;49.202;18.744;2022-10-13T14:36:03;97785.75;;;18.95;50.13
70589;BME280;58152;49.202;18.744;2022-10-13T14:38:29;97781.56;;;19.17;49.78
70589;BME280;58152;49.202;18.744;2022-10-13T14:40:59;97769.94;;;19.18;50.09
70589;BME280;58152;49.202;18.744;2022-10-13T14:43:26;97765.78;;;18.90;50.57
70589;BME280;58152;49.202;18.744;2022-10-13T14:45:51;97771.13;;;18.77;50.92
70589;BME280;58152;49.202;18.744;2022-10-13T14:48:17;97773.19;;;18.61;51.63
70589;BME280;58152;49.202;18.744;2022-10-13T14:54:11;97775.84;;;18.61;52.22
70589;BME280;58152;49.202;18.744;2022-10-13T14:56:42;97771.03;;;18.66;51.89
70589;BME280;58152;49.202;18.744;2022-10-13T15:06:53;97774.38;;;18.31;52.57
70589;BME280;58152;49.202;18.744;2022-10-13T15:13:59;97766.19;;;17.96;53.31
70589;BME280;58152;49.202;18.744;2022-10-13T15:20:34;97773.13;;;17.71;53.65
70589;BME280;58152;49.202;18.744;2022-10-13T15:22:59;97773.25;;;17.70;54.16
70589;BME280;58152;49.202;18.744;2022-10-13T15:26:02;97761.25;;;17.64;54.53
70589;BME280;58152;49.202;18.744;2022-10-13T16:46:38;97760.66;;;16.08;58.70
70589;BME280;58152;49.202;18.744;2022-10-13T16:49:04;97750.81;;;15.96;57.98
70589;BME280;58152;49.202;18.744;2022-10-13T16:51:30;97768.56;;;15.94;58.11
70589;BME280;58152;49.202;18.744;2022-10-13T16:53:58;97747.38;;;15.80;58.08
70589;BME280;58152;49.202;18.744;2022-10-13T16:56:26;97753.72;;;15.77;57.74
70589;BME280;58152;49.202;18.744;2022-10-13T16:58:56;97761.09;;;15.72;57.86
70589;BME280;58152;49.202;18.744;2022-10-13T17:01:29;97759.88;;;15.62;57.88
70589;BME280;58152;49.202;18.744;2022-10-13T17:07:30;97764.06;;;15.36;58.24
70589;BME280;58152;49.202;18.744;2022-10-13T17:10:17;97765.88;;;15.35;58.29
70589;BME280;58152;49.202;18.744;2022-10-13T17:12:42;97773.97;;;15.32;59.13
70589;BME280;58152;49.202;18.744;2022-10-13T17:15:08;97771.47;;;15.29;58.82
70589;BME280;58152;49.202;18.744;2022-10-13T17:17:34;97761.16;;;15.24;58.88
70589;BME280;58152;49.202;18.744;2022-10-13T17:19:59;97771.84;;;15.23;58.53
70589;BME280;58152;49.202;18.744;2022-10-13T17:22:25;97761.81;;;15.14;58.72
70589;BME280;58152;49.202;18.744;2022-10-13T17:24:51;97763.66;;;15.12;58.83
70589;BME280;58152;49.202;18.744;2022-10-13T17:27:19;97770.84;;;15.10;58.49
70589;BME280;58152;49.202;18.744;2022-10-13T17:29:45;97758.91;;;15.03;58.33
70589;BME280;58152;49.202;18.744;2022-10-13T17:32:15;97758.50;;;14.94;58.92
70589;BME280;58152;49.202;18.744;2022-10-13T17:34:41;97747.59;;;14.85;58.43
70589;BME280;58152;49.202;18.744;2022-10-13T17:37:22;97752.91;;;14.85;58.93
70589;BME280;58152;49.202;18.744;2022-10-13T17:39:53;97754.91;;;14.80;58.88
70589;BME280;58152;49.202;18.744;2022-10-13T17:42:19;97758.75;;;14.74;59.02
70589;BME280;58152;49.202;18.744;2022-10-13T17:44:47;97767.47;;;14.76;59.12
70589;BME280;58152;49.202;18.744;2022-10-13T17:47:15;97765.13;;;14.70;59.11
70589;BME280;58152;49.202;18.744;2022-10-13T17:49:46;97768.81;;;14.67;58.90
70589;BME280;58152;49.202;18.744;2022-10-13T17:52:12;97754.34;;;14.59;59.05
70589;BME280;58152;49.202;18.744;2022-10-13T17:54:38;97753.63;;;14.55;59.36
70589;BME280;58152;49.202;18.744;2022-10-13T17:57:03;97760.72;;;14.55;59.32
70589;BME280;58152;49.202;18.744;2022-10-13T17:59:29;97770.69;;;14.65;59.51
70589;BME280;58152;49.202;18.744;2022-10-13T18:01:55;97755.44;;;14.55;59.37
70589;BME280;58152;49.202;18.744;2022-10-13T18:04:20;97751.34;;;14.49;59.05
70589;BME280;58152;49.202;18.744;2022-10-13T18:06:47;97769.75;;;14.51;59.94
70589;BME280;58152;49.202;18.744;2022-10-13T18:09:20;97773.31;;;14.49;59.95
70589;BME280;58152;49.202;18.744;2022-10-13T18:11:48;97754.63;;;14.37;60.03
70589;BME280;58152;49.202;18.744;2022-10-13T18:14:56;97764.41;;;14.35;60.52
70589;BME280;58152;49.202;18.744;2022-10-13T18:17:22;97763.72;;;14.31;60.11
70589;BME280;58152;49.202;18.744;2022-10-13T18:19:50;97761.19;;;14.30;60.27
70589;BME280;58152;49.202;18.744;2022-10-13T18:22:30;97767.97;;;14.34;60.68
70589;BME280;58152;49.202;18.744;2022-10-13T18:24:55;97777.78;;;14.32;60.13
70589;BME280;58152;49.202;18.744;2022-10-13T18:27:24;97759.03;;;14.20;59.68
70589;BME280;58152;49.202;18.744;2022-10-13T18:29:49;97766.41;;;14.14;59.35
70589;BME280;58152;49.202;18.744;2022-10-13T18:32:25;97759.69;;;14.08;59.93
70589;BME280;58152;49.202;18.744;2022-10-13T18:34:56;97761.47;;;14.08;59.91
70589;BME280;58152;49.202;18.744;2022-10-13T18:37:27;97767.34;;;14.13;60.15
70589;BME280;58152;49.202;18.744;2022-10-13T18:40:35;97773.09;;;14.04;59.97
70589;BME280;58152;49.202;18.744;2022-10-13T18:46:57;97774.69;;;13.90;59.98
70589;BME280;58152;49.202;18.744;2022-10-13T19:06:31;97757.63;;;13.63;61.26
70589;BME280;58152;49.202;18.744;2022-10-13T19:09:20;97769.88;;;13.64;61.10
70589;BME280;58152;49.202;18.744;2022-10-13T19:25:27;97767.81;;;13.53;61.60
70589;BME280;58152;49.202;18.744;2022-10-13T19:28:13;97762.84;;;13.47;61.85
70589;BME280;58152;49.202;18.744;2022-10-13T19:34:19;97771.63;;;13.47;62.10
70589;BME280;58152;49.202;18.744;2022-10-13T19:40:48;97777.13;;;13.43;62.51
70589;BME280;58152;49.202;18.744;2022-10-13T19:47:16;97770.66;;;13.31;62.98
70589;BME280;58152;49.202;18.744;2022-10-13T19:49:48;97773.19;;;13.33;62.46
70589;BME280;58152;49.202;18.744;2022-10-13T19:53:09;97771.50;;;13.32;62.19
70589;BME280;58152;49.202;18.744;2022-10-13T19:56:16;97771.03;;;13.23;63.03
70589;BME280;58152;49.202;18.744;2022-10-13T19:58:42;97773.75;;;13.22;62.45
70589;BME280;58152;49.202;18.744;2022-10-13T20:04:21;97769.69;;;13.15;62.65
70589;BME280;58152;49.202;18.744;2022-10-13T20:10:25;97762.16;;;13.07;62.38
70589;BME280;58152;49.202;18.744;2022-10-13T20:13:57;97770.78;;;13.11;63.04
70589;BME280;58152;49.202;18.744;2022-10-13T20:23:12;97762.44;;;13.01;62.56
70589;BME280;58152;49.202;18.744;2022-10-13T20:29:09;97759.88;;;13.00;62.92
70589;BME280;58152;49.202;18.744;2022-10-13T20:31:48;97755.78;;;12.94;62.89
70589;BME280;58152;49.202;18.744;2022-10-13T20:45:26;97768.00;;;12.95;63.94
70589;BME280;58152;49.202;18.744;2022-10-13T21:11:28;97752.31;;;12.75;64.18
70589;BME280;58152;49.202;18.744;2022-10-13T21:13:53;97755.84;;;12.73;64.16
70589;BME280;58152;49.202;18.744;2022-10-13T21:19:42;97736.34;;;12.60;64.34
70589;BME280;58152;49.202;18.744;2022-10-13T21:25:27;97728.56;;;12.57;64.49
70589;BME280;58152;49.202;18.744;2022-10-13T21:27:53;97752.75;;;12.65;64.17
70589;BME280;58152;49.202;18.744;2022-10-13T21:30:23;97742.44;;;12.61;64.10
70589;BME280;58152;49.202;18.744;2022-10-13T21:32:52;97733.91;;;12.56;64.08
70589;BME280;58152;49.202;18.744;2022-10-13T21:39:23;97746.19;;;12.55;64.27
70589;BME280;58152;49.202;18.744;2022-10-13T21:41:56;97726.47;;;12.46;64.43
70589;BME280;58152;49.202;18.744;2022-10-13T21:44:29;97735.84;;;12.52;64.74
70589;BME280;58152;49.202;18.744;2022-10-13T21:46:59;97742.09;;;12.50;64.87
70589;BME280;58152;49.202;18.744;2022-10-13T21:52:40;97742.09;;;12.50;64.42
70589;BME280;58152;49.202;18.744;2022-10-13T21:55:10;97741.31;;;12.48;65.20
70589;BME280;58152;49.202;18.744;2022-10-13T21:57:45;97743.22;;;12.44;65.16
70589;BME280;58152;49.202;18.744;2022-10-13T22:00:47;97734.69;;;12.39;65.37
70589;BME280;58152;49.202;18.744;2022-10-13T22:03:36;97734.19;;;12.31;65.32
70589;BME280;58152;49.202;18.744;2022-10-13T22:06:06;97733.22;;;12.33;64.92
70589;BME280;58152;49.202;18.744;2022-10-13T22:08:38;97732.41;;;12.31;65.15
70589;BME280;58152;49.202;18.744;2022-10-13T22:11:42;97720.50;;;12.24;65.58
70589;BME280;58152;49.202;18.744;2022-10-13T22:14:13;97721.53;;;12.20;64.66
70589;BME280;58152;49.202;18.744;2022-10-13T22:16:47;97732.78;;;12.24;66.42
70589;BME280;58152;49.202;18.744;2022-10-13T22:19:14;97720.09;;;12.13;65.46
70589;BME280;58152;49.202;18.744;2022-10-13T22:25:19;97713.50;;;12.04;65.48
70589;BME280;58152;49.202;18.744;2022-10-13T22:28:17;97724.81;;;12.06;65.36
70589;BME280;58152;49.202;18.744;2022-10-13T22:31:07;97720.47;;;12.05;64.84
70589;BME280;58152;49.202;18.744;2022-10-13T22:33:34;97718.91;;;12.01;65.08
70589;BME280;58152;49.202;18.744;2022-10-13T22:36:06;97713.13;;;11.93;64.80
70589;BME280;58152;49.202;18.744;2022-10-13T22:38:33;97713.91;;;11.95;65.06
70589;BME280;58152;49.202;18.744;2022-10-13T22:41:17;97727.66;;;12.02;65.55
70589;BME280;58152;49.202;18.744;2022-10-13T22:43:47;97726.00;;;11.99;65.16
70589;BME280;58152;49.202;18.744;2022-10-13T22:46:15;97708.81;;;11.92;65.60
70589;BME280;58152;49.202;18.744;2022-10-13T22:48:53;97702.19;;;11.83;65.48
70589;BME280;58152;49.202;18.744;2022-10-13T22:51:25;97723.72;;;11.91;65.63
70589;BME280;58152;49.202;18.744;2022-10-13T22:54:16;97722.84;;;11.91;65.58
70589;BME280;58152;49.202;18.744;2022-10-13T22:56:45;97700.50;;;11.81;65.37
70589;BME280;58152;49.202;18.744;2022-10-13T22:59:12;97706.59;;;11.81;65.39
70589;BME280;58152;49.202;18.744;2022-10-13T23:01:38;97718.88;;;11.82;65.04
70589;BME280;58152;49.202;18.744;2022-10-13T23:04:04;97711.84;;;11.83;65.92
70589;BME280;58152;49.202;18.744;2022-10-13T23:06:33;97698.16;;;11.75;65.81
70589;BME280;58152;49.202;18.744;2022-10-13T23:09:16;97712.88;;;11.79;65.46
70589;BME280;58152;49.202;18.744;2022-10-13T23:11:55;97706.97;;;11.74;65.06
70589;BME280;58152;49.202;18.744;2022-10-13T23:14:20;97697.63;;;11.66;65.55
70589;BME280;58152;49.202;18.744;2022-10-13T23:16:46;97703.69;;;11.68;65.79
70589;BME280;58152;49.202;18.744;2022-10-13T23:22:06;97693.19;;;11.48;64.97
70589;BME280;58152;49.202;18.744;2022-10-13T23:24:31;97700.94;;;11.51;65.14
70589;BME280;58152;49.202;18.744;2022-10-13T23:27:24;97700.09;;;11.51;64.80
70589;BME280;58152;49.202;18.744;2022-10-13T23:29:50;97688.31;;;11.39;65.41
70589;BME280;58152;49.202;18.744;2022-10-13T23:32:19;97695.34;;;11.38;65.19
70589;BME280;58152;49.202;18.744;2022-10-13T23:35:08;97692.00;;;11.35;64.63
70589;BME280;58152;49.202;18.744;2022-10-13T23:37:41;97696.31;;;11.36;64.95
70589;BME280;58152;49.202;18.744;2022-10-13T23:40:07;97695.56;;;11.34;65.44
70589;BME280;58152;49.202;18.744;2022-10-13T23:42:33;97693.25;;;11.26;65.45
70589;BME280;58152;49.202;18.744;2022-10-13T23:45:04;97701.94;;;11.28;65.58
70589;BME280;58152;49.202;18.744;2022-10-13T23:47:33;97686.41;;;11.22;64.79
70589;BME280;58152;49.202;18.744;2022-10-13T23:49:58;97687.28;;;11.23;65.35
70589;BME280;58152;49.202;18.744;2022-10-13T23:52:24;97684.97;;;11.15;65.54
70589;BME280;58152;49.202;18.744;2022-10-13T23:55:00;97697.09;;;11.17;65.06
70589;BME280;58152;49.202;18.744;2022-10-13T23:57:30;97692.78;;;11.16;65.24
